createdAt,value
2022-11-06T00:01:28.789Z,2.67
2022-11-06T00:04:03.852Z,2.80
2022-11-06T00:06:48.193Z,3.00
2022-11-06T00:09:22.982Z,2.77
2022-11-06T00:11:58.023Z,2.80
2022-11-06T00:14:31.609Z,2.90
2022-11-06T00:17:04.974Z,2.57
2022-11-06T00:19:39.707Z,2.60
2022-11-06T00:22:13.324Z,2.63
2022-11-06T00:24:46.672Z,2.67
2022-11-06T00:27:20.285Z,2.50
2022-11-06T00:29:53.916Z,2.67
2022-11-06T00:32:27.512Z,2.33
2022-11-06T00:35:02.886Z,2.37
2022-11-06T00:37:36.801Z,2.30
2022-11-06T00:40:15.120Z,2.10
2022-11-06T00:42:48.526Z,2.10
2022-11-06T00:45:21.982Z,2.33
2022-11-06T00:47:55.856Z,2.33
2022-11-06T00:50:31.260Z,2.37
2022-11-06T00:53:04.946Z,1.97
2022-11-06T00:55:38.324Z,2.40
2022-11-06T00:58:12.066Z,2.40
2022-11-06T01:00:45.589Z,2.40
2022-11-06T01:03:18.960Z,2.10
2022-11-06T01:05:55.120Z,1.90
2022-11-06T01:08:28.571Z,2.20
2022-11-06T01:11:09.482Z,2.20
2022-11-06T01:13:43.924Z,1.87
2022-11-06T01:16:17.699Z,1.90
2022-11-06T01:18:52.223Z,2.00
2022-11-06T01:21:30.065Z,2.00
2022-11-06T01:24:07.555Z,2.30
2022-11-06T01:26:58.822Z,1.77
2022-11-06T01:29:37.375Z,1.57
2022-11-06T01:32:11.502Z,1.77
2022-11-06T01:34:46.931Z,1.70
2022-11-06T01:37:22.110Z,1.90
2022-11-06T01:39:56.488Z,1.70
2022-11-06T01:42:29.975Z,1.93
2022-11-06T01:45:40.851Z,2.07
2022-11-06T01:48:17.040Z,1.80
2022-11-06T01:50:56.448Z,2.07
2022-11-06T01:53:31.996Z,2.10
2022-11-06T01:56:10.493Z,1.80
2022-11-06T01:58:48.679Z,1.73
2022-11-06T02:01:22.371Z,1.83
2022-11-06T02:04:04.609Z,1.90
2022-11-06T02:06:39.710Z,1.73
2022-11-06T02:09:15.377Z,1.57
2022-11-06T02:11:58.066Z,1.73
2022-11-06T02:14:43.074Z,1.70
2022-11-06T02:17:29.373Z,2.00
2022-11-06T02:20:11.591Z,2.00
2022-11-06T02:23:30.909Z,2.23
2022-11-06T02:26:26.209Z,1.70
2022-11-06T02:29:08.630Z,1.57
2022-11-06T02:31:46.667Z,2.00
2022-11-06T02:34:25.626Z,1.43
2022-11-06T02:37:06.352Z,1.97
2022-11-06T02:39:44.012Z,1.57
2022-11-06T02:42:22.488Z,1.67
2022-11-06T02:44:59.130Z,1.50
2022-11-06T02:47:35.555Z,2.10
2022-11-06T02:50:13.737Z,1.40
2022-11-06T02:52:55.224Z,1.67
2022-11-06T02:55:35.204Z,1.70
2022-11-06T02:58:15.213Z,1.80
2022-11-06T03:00:57.386Z,1.77
2022-11-06T03:03:35.938Z,1.57
2022-11-06T03:06:18.476Z,1.37
2022-11-06T03:08:58.597Z,1.40
2022-11-06T03:11:39.135Z,1.40
2022-11-06T03:14:19.861Z,1.70
2022-11-06T03:17:11.527Z,1.67
2022-11-06T03:19:51.853Z,1.50
2022-11-06T03:22:34.330Z,1.60
2022-11-06T03:25:19.997Z,1.50
2022-11-06T03:28:05.922Z,1.60
2022-11-06T03:30:47.183Z,1.53
2022-11-06T03:33:34.752Z,1.60
2022-11-06T03:36:16.053Z,1.33
2022-11-06T03:38:55.739Z,1.43
2022-11-06T03:41:38.755Z,1.83
2022-11-06T03:44:18.938Z,1.60
2022-11-06T03:47:03.909Z,1.80
2022-11-06T03:49:47.406Z,1.40
2022-11-06T03:52:29.462Z,1.77
2022-11-06T03:55:09.003Z,1.40
2022-11-06T03:57:49.686Z,1.33
2022-11-06T04:00:24.813Z,1.43
2022-11-06T04:03:05.820Z,1.60
2022-11-06T04:05:49.263Z,1.50
2022-11-06T04:08:43.447Z,1.57
2022-11-06T04:11:41.176Z,1.50
2022-11-06T04:14:17.806Z,1.57
2022-11-06T04:16:57.896Z,1.53
2022-11-06T04:19:31.254Z,1.90
2022-11-06T04:22:35.399Z,1.57
2022-11-06T04:25:48.235Z,1.30
2022-11-06T04:28:35.013Z,1.80
2022-11-06T04:31:17.683Z,1.47
2022-11-06T04:33:59.969Z,1.27
2022-11-06T04:36:45.232Z,1.43
2022-11-06T04:39:31.685Z,1.60
2022-11-06T04:42:18.452Z,1.30
2022-11-06T04:45:02.624Z,1.60
2022-11-06T04:47:39.980Z,1.27
2022-11-06T04:50:16.774Z,1.37
2022-11-06T04:52:51.336Z,1.30
2022-11-06T04:55:27.372Z,1.50
2022-11-06T04:58:00.891Z,1.53
2022-11-06T05:00:35.078Z,1.10
2022-11-06T05:03:09.338Z,1.50
2022-11-06T05:05:43.485Z,1.23
2022-11-06T05:08:18.916Z,1.20
2022-11-06T05:10:53.695Z,1.30
2022-11-06T05:13:27.111Z,1.40
2022-11-06T05:16:01.664Z,1.37
2022-11-06T05:18:36.236Z,1.50
2022-11-06T05:21:27.245Z,1.07
2022-11-06T05:24:00.613Z,1.10
2022-11-06T05:26:36.164Z,1.60
2022-11-06T05:29:10.319Z,1.17
2022-11-06T05:31:44.968Z,1.20
2022-11-06T05:34:18.310Z,1.20
2022-11-06T05:36:51.684Z,1.17
2022-11-06T05:39:25.959Z,1.10
2022-11-06T05:42:00.692Z,1.50
2022-11-06T05:44:34.388Z,1.23
2022-11-06T05:47:07.711Z,1.43
2022-11-06T05:49:42.612Z,1.00
2022-11-06T05:52:15.988Z,1.20
2022-11-06T05:54:49.299Z,1.10
2022-11-06T05:57:24.511Z,1.20
2022-11-06T05:59:58.125Z,1.37
2022-11-06T06:02:31.909Z,1.00
2022-11-06T06:05:07.125Z,1.23
2022-11-06T06:07:40.627Z,1.30
2022-11-06T06:10:14.098Z,1.30
2022-11-06T06:12:51.017Z,1.47
2022-11-06T06:15:24.351Z,1.27
2022-11-06T06:17:59.912Z,1.20
2022-11-06T06:20:33.769Z,1.10
2022-11-06T06:23:09.632Z,1.40
2022-11-06T06:25:44.526Z,1.50
2022-11-06T06:28:19.776Z,1.10
2022-11-06T06:30:58.595Z,1.40
2022-11-06T06:33:36.397Z,1.30
2022-11-06T06:36:10.892Z,1.20
2022-11-06T06:38:44.244Z,1.37
2022-11-06T06:41:17.709Z,1.53
2022-11-06T06:43:52.705Z,1.10
2022-11-06T06:46:26.510Z,1.33
2022-11-06T06:49:00.088Z,1.70
2022-11-06T06:51:34.565Z,1.20
2022-11-06T06:54:08.292Z,1.47
2022-11-06T06:56:41.803Z,1.30
2022-11-06T06:59:16.804Z,1.20
2022-11-06T07:01:50.297Z,1.00
2022-11-06T07:04:23.892Z,1.50
2022-11-06T07:06:57.710Z,1.40
2022-11-06T07:09:32.818Z,1.27
2022-11-06T07:12:06.723Z,1.20
2022-11-06T07:14:41.867Z,1.20
2022-11-06T07:17:15.208Z,1.57
2022-11-06T07:19:48.565Z,1.13
2022-11-06T07:22:29.682Z,1.30
2022-11-06T07:25:09.951Z,1.13
2022-11-06T07:27:43.341Z,1.27
2022-11-06T07:30:18.754Z,1.10
2022-11-06T07:32:52.315Z,1.10
2022-11-06T07:35:25.935Z,1.43
2022-11-06T07:38:00.097Z,1.17
2022-11-06T07:40:34.201Z,1.40
2022-11-06T07:43:09.763Z,1.13
2022-11-06T07:45:45.706Z,1.73
2022-11-06T07:48:19.543Z,1.70
2022-11-06T07:50:52.901Z,1.40
2022-11-06T07:53:27.323Z,1.40
2022-11-06T07:56:01.480Z,1.40
2022-11-06T07:58:35.585Z,1.40
2022-11-06T08:01:18.940Z,1.13
2022-11-06T08:03:52.680Z,1.30
2022-11-06T08:06:26.059Z,1.03
2022-11-06T08:09:00.005Z,1.40
2022-11-06T08:11:33.456Z,1.20
2022-11-06T08:14:07.019Z,1.13
2022-11-06T08:16:41.886Z,1.40
2022-11-06T08:19:15.344Z,1.40
2022-11-06T08:21:49.400Z,1.30
2022-11-06T08:24:23.101Z,1.10
2022-11-06T08:26:57.610Z,1.50
2022-11-06T08:29:31.097Z,1.10
2022-11-06T08:32:06.501Z,1.30
2022-11-06T08:34:39.916Z,1.50
2022-11-06T08:37:13.356Z,1.23
2022-11-06T08:39:46.880Z,1.40
2022-11-06T08:42:20.272Z,1.20
2022-11-06T08:44:53.733Z,2.10
2022-11-06T08:47:30.179Z,2.13
2022-11-06T08:50:04.179Z,2.00
2022-11-06T08:52:37.762Z,1.70
2022-11-06T08:55:11.535Z,1.90
2022-11-06T08:57:45.093Z,1.40
2022-11-06T09:00:19.283Z,1.70
2022-11-06T09:03:00.357Z,1.77
2022-11-06T09:05:34.447Z,1.37
2022-11-06T09:08:07.861Z,1.40
2022-11-06T09:10:44.022Z,1.10
2022-11-06T09:13:17.632Z,1.20
2022-11-06T09:15:53.971Z,1.13
2022-11-06T09:18:29.347Z,1.10
2022-11-06T09:21:05.653Z,1.20
2022-11-06T09:23:39.431Z,1.50
2022-11-06T09:26:12.944Z,1.20
2022-11-06T09:28:48.012Z,1.10
2022-11-06T09:31:22.023Z,1.27
2022-11-06T09:33:57.061Z,1.20
2022-11-06T09:36:30.503Z,1.67
2022-11-06T09:39:04.083Z,1.20
2022-11-06T09:41:57.848Z,1.20
2022-11-06T09:44:52.944Z,1.50
2022-11-06T09:47:33.032Z,0.90
2022-11-06T09:50:18.206Z,1.10
2022-11-06T09:53:04.655Z,0.97
2022-11-06T09:55:44.532Z,1.40
2022-11-06T09:58:24.480Z,0.87
2022-11-06T10:01:03.580Z,1.13
2022-11-06T10:03:46.644Z,1.10
2022-11-06T10:06:24.162Z,1.50
2022-11-06T10:09:02.470Z,1.20
2022-11-06T10:11:56.195Z,1.30
2022-11-06T10:14:51.393Z,1.07
2022-11-06T10:17:46.675Z,1.10
2022-11-06T10:20:27.460Z,1.10
2022-11-06T10:23:18.074Z,1.10
2022-11-06T10:26:08.053Z,1.00
2022-11-06T10:29:16.930Z,1.40
2022-11-06T10:32:13.942Z,1.23
2022-11-06T10:34:53.899Z,1.10
2022-11-06T10:37:31.583Z,1.07
2022-11-06T10:40:18.267Z,1.17
2022-11-06T10:43:03.074Z,1.50
2022-11-06T10:45:42.546Z,1.03
2022-11-06T10:48:30.500Z,1.20
2022-11-06T10:51:25.565Z,1.10
2022-11-06T10:54:19.398Z,1.17
2022-11-06T10:57:11.412Z,1.40
2022-11-06T10:59:45.121Z,1.40
2022-11-06T11:02:29.392Z,1.33
2022-11-06T11:05:11.547Z,1.03
2022-11-06T11:07:48.558Z,1.17
2022-11-06T11:10:33.434Z,1.50
2022-11-06T11:13:22.356Z,1.37
2022-11-06T11:15:55.947Z,0.97
2022-11-06T11:18:32.661Z,1.20
2022-11-06T11:21:21.139Z,1.20
2022-11-06T11:24:09.303Z,1.43
2022-11-06T11:26:49.051Z,3.60
2022-11-06T11:29:30.722Z,2.53
2022-11-06T11:32:08.832Z,2.03
2022-11-06T11:34:53.925Z,1.70
2022-11-06T11:37:32.230Z,3.10
2022-11-06T11:40:35.947Z,2.90
2022-11-06T11:43:28.630Z,1.70
2022-11-06T11:46:21.461Z,1.63
2022-11-06T11:49:00.281Z,1.30
2022-11-06T11:51:47.832Z,1.10
2022-11-06T11:54:26.270Z,1.63
2022-11-06T11:57:07.315Z,1.37
2022-11-06T11:59:47.930Z,1.07
2022-11-06T12:02:29.526Z,1.20
2022-11-06T12:05:12.235Z,1.17
2022-11-06T12:07:50.989Z,1.17
2022-11-06T12:10:33.457Z,1.40
2022-11-06T12:13:17.507Z,1.20
2022-11-06T12:15:58.673Z,1.30
2022-11-06T12:18:38.341Z,1.40
2022-11-06T12:21:22.749Z,1.23
2022-11-06T12:24:03.086Z,1.53
2022-11-06T12:26:45.762Z,1.60
2022-11-06T12:29:24.800Z,1.63
2022-11-06T12:32:08.845Z,1.80
2022-11-06T12:34:53.565Z,1.13
2022-11-06T12:37:42.041Z,1.20
2022-11-06T12:40:25.356Z,1.20
2022-11-06T12:43:17.533Z,1.40
2022-11-06T12:46:08.364Z,1.33
2022-11-06T12:49:49.747Z,1.17
2022-11-06T12:52:43.429Z,1.30
2022-11-06T12:55:28.052Z,1.17
2022-11-06T12:58:36.445Z,1.43
2022-11-06T13:01:21.690Z,1.40
2022-11-06T13:04:22.267Z,1.70
2022-11-06T13:07:36.021Z,1.50
2022-11-06T13:10:38.057Z,1.97
2022-11-06T13:13:41.651Z,1.73
2022-11-06T13:16:30.902Z,1.40
2022-11-06T13:19:16.820Z,1.70
2022-11-06T13:22:09.153Z,1.60
2022-11-06T13:24:51.719Z,1.40
2022-11-06T13:27:36.573Z,1.63
2022-11-06T13:30:18.152Z,1.53
2022-11-06T13:33:04.000Z,1.40
2022-11-06T13:35:41.964Z,1.37
2022-11-06T13:38:21.957Z,1.30
2022-11-06T13:41:04.018Z,1.60
2022-11-06T13:43:43.985Z,1.30
2022-11-06T13:46:31.553Z,1.10
2022-11-06T13:49:18.675Z,1.90
2022-11-06T13:51:57.583Z,1.10
2022-11-06T13:55:06.411Z,1.40
2022-11-06T13:58:19.683Z,1.00
2022-11-06T14:01:07.557Z,1.17
2022-11-06T14:04:16.440Z,1.30
2022-11-06T14:06:54.878Z,1.33
2022-11-06T14:09:32.979Z,1.00
2022-11-06T14:12:15.308Z,1.37
2022-11-06T14:14:53.088Z,1.10
2022-11-06T14:17:27.267Z,1.00
2022-11-06T14:20:08.864Z,1.10
2022-11-06T14:22:42.633Z,1.10
2022-11-06T14:25:58.276Z,1.20
2022-11-06T14:28:34.556Z,1.20
2022-11-06T14:31:13.112Z,1.07
2022-11-06T14:34:03.806Z,1.20
2022-11-06T14:36:38.481Z,1.27
2022-11-06T14:39:15.851Z,1.03
2022-11-06T14:42:00.370Z,0.83
2022-11-06T14:44:49.499Z,1.00
2022-11-06T14:47:51.408Z,1.43
2022-11-06T14:50:37.025Z,1.20
2022-11-06T14:53:29.799Z,1.20
2022-11-06T14:56:09.072Z,1.23
2022-11-06T14:58:51.261Z,1.00
2022-11-06T15:01:31.201Z,1.20
2022-11-06T15:04:16.285Z,1.17
2022-11-06T15:06:52.075Z,1.00
2022-11-06T15:09:47.767Z,1.00
2022-11-06T15:13:07.120Z,0.97
2022-11-06T15:15:44.560Z,1.03
2022-11-06T15:18:23.085Z,0.90
2022-11-06T15:21:03.092Z,1.27
2022-11-06T15:23:46.815Z,1.40
2022-11-06T15:26:28.367Z,1.20
2022-11-06T15:29:21.418Z,1.30
2022-11-06T15:32:03.854Z,1.20
2022-11-06T15:34:42.075Z,1.30
2022-11-06T15:37:23.090Z,1.03
2022-11-06T15:40:01.207Z,1.30
2022-11-06T15:42:38.078Z,1.10
2022-11-06T15:45:23.215Z,1.10
2022-11-06T15:48:02.386Z,1.40
2022-11-06T15:50:37.418Z,1.30
2022-11-06T15:53:22.269Z,1.20
2022-11-06T15:56:01.464Z,1.30
2022-11-06T15:58:37.210Z,1.30
2022-11-06T16:01:13.076Z,1.00
2022-11-06T16:03:52.642Z,1.30
2022-11-06T16:06:26.896Z,1.33
2022-11-06T16:09:05.158Z,1.50
2022-11-06T16:11:39.980Z,1.10
2022-11-06T16:14:15.793Z,1.20
2022-11-06T16:16:51.903Z,1.17
2022-11-06T16:19:33.767Z,1.10
2022-11-06T16:22:12.125Z,1.20
2022-11-06T16:24:52.921Z,1.37
2022-11-06T16:27:28.455Z,1.30
2022-11-06T16:30:04.263Z,1.40
2022-11-06T16:32:42.167Z,1.10
2022-11-06T16:35:36.531Z,1.20
2022-11-06T16:38:42.038Z,1.30
2022-11-06T16:41:32.678Z,1.17
2022-11-06T16:44:31.324Z,1.20
2022-11-06T16:47:23.631Z,1.23
2022-11-06T16:49:58.744Z,1.17
2022-11-06T16:52:35.693Z,1.40
2022-11-06T16:55:28.464Z,1.33
2022-11-06T16:58:04.628Z,1.40
2022-11-06T17:00:38.370Z,1.53
2022-11-06T17:03:24.003Z,1.40
2022-11-06T17:05:59.782Z,1.77
2022-11-06T17:08:38.506Z,1.67
2022-11-06T17:11:21.937Z,1.77
2022-11-06T17:14:01.472Z,1.50
2022-11-06T17:16:49.522Z,1.70
2022-11-06T17:19:23.542Z,1.40
2022-11-06T17:21:58.178Z,1.63
2022-11-06T17:24:36.564Z,1.40
2022-11-06T17:27:10.848Z,1.40
2022-11-06T17:29:45.954Z,1.50
2022-11-06T17:32:19.608Z,1.40
2022-11-06T17:34:53.165Z,1.30
2022-11-06T17:37:27.402Z,1.33
2022-11-06T17:40:00.791Z,1.50
2022-11-06T17:42:34.814Z,1.50
2022-11-06T17:45:11.178Z,1.17
2022-11-06T17:47:44.824Z,1.40
2022-11-06T17:50:19.529Z,1.47
2022-11-06T17:52:53.369Z,1.53
2022-11-06T17:55:26.856Z,1.50
2022-11-06T17:58:00.255Z,1.27
2022-11-06T18:00:35.635Z,1.30
2022-11-06T18:03:09.475Z,1.40
2022-11-06T18:05:43.824Z,1.40
2022-11-06T18:08:17.691Z,1.30
2022-11-06T18:10:56.479Z,1.30
2022-11-06T18:13:31.481Z,1.40
2022-11-06T18:16:16.111Z,1.30
2022-11-06T18:18:49.957Z,1.40
2022-11-06T18:21:24.322Z,1.40
2022-11-06T18:23:57.808Z,1.63
2022-11-06T18:26:33.140Z,1.43
2022-11-06T18:29:08.772Z,1.60
2022-11-06T18:31:44.341Z,1.57
2022-11-06T18:34:21.461Z,1.47
2022-11-06T18:36:54.982Z,1.60
2022-11-06T18:39:36.546Z,1.43
2022-11-06T18:42:09.899Z,1.50
2022-11-06T18:44:43.269Z,1.50
2022-11-06T18:47:18.250Z,1.50
2022-11-06T18:49:51.705Z,1.43
2022-11-06T18:52:51.485Z,1.37
2022-11-06T18:55:18.657Z,1.37
2022-11-06T18:57:54.879Z,1.47
2022-11-06T19:00:31.354Z,1.60
2022-11-06T19:03:06.789Z,1.90
2022-11-06T19:05:46.940Z,1.70
2022-11-06T19:08:20.690Z,1.63
2022-11-06T19:10:58.495Z,1.80
2022-11-06T19:13:32.205Z,1.70
2022-11-06T19:16:07.716Z,1.90
2022-11-06T19:18:43.961Z,1.63
2022-11-06T19:21:18.029Z,1.83
2022-11-06T19:23:52.313Z,1.70
2022-11-06T19:26:31.140Z,1.73
2022-11-06T19:29:09.211Z,1.60
2022-11-06T19:31:44.205Z,1.50
2022-11-06T19:34:20.350Z,1.70
2022-11-06T19:36:54.387Z,1.50
2022-11-06T19:39:28.145Z,1.73
2022-11-06T19:42:01.592Z,1.60
2022-11-06T19:44:34.875Z,1.80
2022-11-06T19:47:14.867Z,1.40
2022-11-06T19:49:49.933Z,1.40
2022-11-06T19:52:43.238Z,1.80
2022-11-06T19:55:26.371Z,2.10
2022-11-06T19:58:00.990Z,2.00
2022-11-06T20:00:35.879Z,2.20
